sensor_id;sensor_type;location;lat;lon;timestamp;P1;P2;P0
40569;PMS5003;26270;34.428;-119.710;2022-08-18T00:02:18;3;3;
40569;PMS5003;26270;34.428;-119.710;2022-08-18T00:04:48;4;4;
40569;PMS5003;26270;34.428;-119.710;2022-08-18T00:07:18;6;5;
40569;PMS5003;26270;34.428;-119.710;2022-08-18T00:09:48;3;3;
40569;PMS5003;26270;34.428;-119.710;2022-08-18T00:12:19;7;5;
40569;PMS5003;26270;34.428;-119.710;2022-08-18T00:14:51;5;5;
40569;PMS5003;26270;34.428;-119.710;2022-08-18T00:17:21;4;4;
40569;PMS5003;26270;34.428;-119.710;2022-08-18T00:19:50;7;6;
40569;PMS5003;26270;34.428;-119.710;2022-08-18T00:22:19;5;5;
40569;PMS5003;26270;34.428;-119.710;2022-08-18T00:24:51;5;5;
40569;PMS5003;26270;34.428;-119.710;2022-08-18T00:27:22;4;3;
40569;PMS5003;26270;34.428;-119.710;2022-08-18T00:29:52;5;4;
40569;PMS5003;26270;34.428;-119.710;2022-08-18T00:32:22;4;4;
40569;PMS5003;26270;34.428;-119.710;2022-08-18T00:34:52;7;6;
40569;PMS5003;26270;34.428;-119.710;2022-08-18T00:37:21;4;4;
40569;PMS5003;26270;34.428;-119.710;2022-08-18T00:39:50;3;3;
40569;PMS5003;26270;34.428;-119.710;2022-08-18T00:42:20;5;4;
40569;PMS5003;26270;34.428;-119.710;2022-08-18T00:44:50;4;3;
40569;PMS5003;26270;34.428;-119.710;2022-08-18T00:47:18;6;5;
40569;PMS5003;26270;34.428;-119.710;2022-08-18T00:49:46;5;5;
40569;PMS5003;26270;34.428;-119.710;2022-08-18T00:52:18;4;3;
40569;PMS5003;26270;34.428;-119.710;2022-08-18T00:54:48;5;5;
40569;PMS5003;26270;34.428;-119.710;2022-08-18T00:57:19;4;4;
40569;PMS5003;26270;34.428;-119.710;2022-08-18T00:59:49;6;6;
40569;PMS5003;26270;34.428;-119.710;2022-08-18T01:02:25;9;7;
40569;PMS5003;26270;34.428;-119.710;2022-08-18T01:04:58;4;4;
40569;PMS5003;26270;34.428;-119.710;2022-08-18T01:07:32;6;5;
40569;PMS5003;26270;34.428;-119.710;2022-08-18T01:10:05;5;5;
40569;PMS5003;26270;34.428;-119.710;2022-08-18T01:12:34;6;6;
40569;PMS5003;26270;34.428;-119.710;2022-08-18T01:15:02;5;4;
40569;PMS5003;26270;34.428;-119.710;2022-08-18T01:17:30;5;4;
40569;PMS5003;26270;34.428;-119.710;2022-08-18T01:19:58;6;6;
40569;PMS5003;26270;34.428;-119.710;2022-08-18T01:22:28;3;3;
40569;PMS5003;26270;34.428;-119.710;2022-08-18T01:25:01;4;4;
40569;PMS5003;26270;34.428;-119.710;2022-08-18T01:27:31;4;3;
40569;PMS5003;26270;34.428;-119.710;2022-08-18T01:30:02;6;5;
40569;PMS5003;26270;34.428;-119.710;2022-08-18T01:32:33;7;6;
40569;PMS5003;26270;34.428;-119.710;2022-08-18T01:35:01;6;5;
40569;PMS5003;26270;34.428;-119.710;2022-08-18T01:37:30;4;4;
40569;PMS5003;26270;34.428;-119.710;2022-08-18T01:39:58;8;6;
40569;PMS5003;26270;34.428;-119.710;2022-08-18T01:42:26;5;5;
40569;PMS5003;26270;34.428;-119.710;2022-08-18T01:44:54;4;4;
40569;PMS5003;26270;34.428;-119.710;2022-08-18T01:47:22;5;4;
40569;PMS5003;26270;34.428;-119.710;2022-08-18T01:49:50;7;5;
40569;PMS5003;26270;34.428;-119.710;2022-08-18T01:52:19;5;4;
40569;PMS5003;26270;34.428;-119.710;2022-08-18T01:54:48;5;5;
40569;PMS5003;26270;34.428;-119.710;2022-08-18T01:57:18;6;5;
40569;PMS5003;26270;34.428;-119.710;2022-08-18T01:59:47;5;4;
40569;PMS5003;26270;34.428;-119.710;2022-08-18T02:02:16;6;5;
40569;PMS5003;26270;34.428;-119.710;2022-08-18T02:04:48;5;5;
40569;PMS5003;26270;34.428;-119.710;2022-08-18T02:07:19;5;5;
40569;PMS5003;26270;34.428;-119.710;2022-08-18T02:09:47;7;6;
40569;PMS5003;26270;34.428;-119.710;2022-08-18T02:12:15;5;5;
40569;PMS5003;26270;34.428;-119.710;2022-08-18T02:14:43;6;6;
40569;PMS5003;26270;34.428;-119.710;2022-08-18T02:17:12;7;6;
40569;PMS5003;26270;34.428;-119.710;2022-08-18T02:19:41;7;5;
40569;PMS5003;26270;34.428;-119.710;2022-08-18T02:22:11;5;5;
40569;PMS5003;26270;34.428;-119.710;2022-08-18T02:24:41;8;6;
40569;PMS5003;26270;34.428;-119.710;2022-08-18T02:27:09;6;6;
40569;PMS5003;26270;34.428;-119.710;2022-08-18T02:29:39;9;8;
40569;PMS5003;26270;34.428;-119.710;2022-08-18T02:32:08;8;8;
40569;PMS5003;26270;34.428;-119.710;2022-08-18T02:34:36;11;11;
40569;PMS5003;26270;34.428;-119.710;2022-08-18T02:37:05;13;13;
40569;PMS5003;26270;34.428;-119.710;2022-08-18T02:39:33;20;20;
40569;PMS5003;26270;34.428;-119.710;2022-08-18T02:42:03;10;9;
40569;PMS5003;26270;34.428;-119.710;2022-08-18T02:44:31;6;6;
40569;PMS5003;26270;34.428;-119.710;2022-08-18T02:46:59;7;7;
40569;PMS5003;26270;34.428;-119.710;2022-08-18T02:49:27;6;5;
40569;PMS5003;26270;34.428;-119.710;2022-08-18T02:51:56;5;4;
40569;PMS5003;26270;34.428;-119.710;2022-08-18T02:54:24;10;8;
40569;PMS5003;26270;34.428;-119.710;2022-08-18T02:56:52;7;7;
40569;PMS5003;26270;34.428;-119.710;2022-08-18T02:59:21;9;8;
40569;PMS5003;26270;34.428;-119.710;2022-08-18T03:01:51;8;7;
40569;PMS5003;26270;34.428;-119.710;2022-08-18T03:04:22;9;7;
40569;PMS5003;26270;34.428;-119.710;2022-08-18T03:06:52;8;8;
40569;PMS5003;26270;34.428;-119.710;2022-08-18T03:09:21;8;7;
40569;PMS5003;26270;34.428;-119.710;2022-08-18T03:11:49;5;5;
40569;PMS5003;26270;34.428;-119.710;2022-08-18T03:14:17;8;8;
40569;PMS5003;26270;34.428;-119.710;2022-08-18T03:16:46;8;7;
40569;PMS5003;26270;34.428;-119.710;2022-08-18T03:19:15;7;7;
40569;PMS5003;26270;34.428;-119.710;2022-08-18T03:21:44;7;7;
40569;PMS5003;26270;34.428;-119.710;2022-08-18T03:24:13;8;7;
40569;PMS5003;26270;34.428;-119.710;2022-08-18T03:26:42;6;6;
40569;PMS5003;26270;34.428;-119.710;2022-08-18T03:29:11;6;6;
40569;PMS5003;26270;34.428;-119.710;2022-08-18T03:31:41;7;7;
40569;PMS5003;26270;34.428;-119.710;2022-08-18T03:34:10;9;8;
40569;PMS5003;26270;34.428;-119.710;2022-08-18T03:36:39;7;6;
40569;PMS5003;26270;34.428;-119.710;2022-08-18T03:39:07;7;7;
40569;PMS5003;26270;34.428;-119.710;2022-08-18T03:41:37;8;8;
40569;PMS5003;26270;34.428;-119.710;2022-08-18T03:44:07;8;8;
40569;PMS5003;26270;34.428;-119.710;2022-08-18T03:46:35;8;7;
40569;PMS5003;26270;34.428;-119.710;2022-08-18T03:49:05;10;9;
40569;PMS5003;26270;34.428;-119.710;2022-08-18T03:51:33;10;9;
40569;PMS5003;26270;34.428;-119.710;2022-08-18T03:54:02;9;7;
40569;PMS5003;26270;34.428;-119.710;2022-08-18T03:56:32;9;8;
40569;PMS5003;26270;34.428;-119.710;2022-08-18T03:59:03;8;7;
40569;PMS5003;26270;34.428;-119.710;2022-08-18T04:03:18;7;7;
40569;PMS5003;26270;34.428;-119.710;2022-08-18T04:05:46;8;8;
40569;PMS5003;26270;34.428;-119.710;2022-08-18T04:08:15;9;7;
40569;PMS5003;26270;34.428;-119.710;2022-08-18T04:10:43;7;6;
40569;PMS5003;26270;34.428;-119.710;2022-08-18T04:13:11;6;6;
40569;PMS5003;26270;34.428;-119.710;2022-08-18T04:15:39;7;7;
40569;PMS5003;26270;34.428;-119.710;2022-08-18T04:18:07;8;8;
40569;PMS5003;26270;34.428;-119.710;2022-08-18T04:20:36;8;8;
40569;PMS5003;26270;34.428;-119.710;2022-08-18T04:23:04;7;7;
40569;PMS5003;26270;34.428;-119.710;2022-08-18T04:25:32;8;7;
40569;PMS5003;26270;34.428;-119.710;2022-08-18T04:28:01;9;7;
40569;PMS5003;26270;34.428;-119.710;2022-08-18T04:30:29;9;7;
40569;PMS5003;26270;34.428;-119.710;2022-08-18T04:32:57;9;8;
40569;PMS5003;26270;34.428;-119.710;2022-08-18T04:35:27;6;5;
40569;PMS5003;26270;34.428;-119.710;2022-08-18T04:37:56;7;6;
40569;PMS5003;26270;34.428;-119.710;2022-08-18T04:40:25;5;5;
40569;PMS5003;26270;34.428;-119.710;2022-08-18T04:42:53;6;6;
40569;PMS5003;26270;34.428;-119.710;2022-08-18T04:45:21;6;5;
40569;PMS5003;26270;34.428;-119.710;2022-08-18T04:47:49;4;4;
40569;PMS5003;26270;34.428;-119.710;2022-08-18T04:50:17;4;4;
40569;PMS5003;26270;34.428;-119.710;2022-08-18T04:52:45;5;5;
40569;PMS5003;26270;34.428;-119.710;2022-08-18T04:55:13;6;6;
40569;PMS5003;26270;34.428;-119.710;2022-08-18T04:57:42;6;5;
40569;PMS5003;26270;34.428;-119.710;2022-08-18T05:00:10;7;5;
40569;PMS5003;26270;34.428;-119.710;2022-08-18T05:02:38;7;7;
40569;PMS5003;26270;34.428;-119.710;2022-08-18T05:05:07;5;5;
40569;PMS5003;26270;34.428;-119.710;2022-08-18T05:07:35;6;6;
40569;PMS5003;26270;34.428;-119.710;2022-08-18T05:10:08;6;6;
40569;PMS5003;26270;34.428;-119.710;2022-08-18T05:12:36;8;8;
40569;PMS5003;26270;34.428;-119.710;2022-08-18T05:15:05;10;9;
40569;PMS5003;26270;34.428;-119.710;2022-08-18T05:17:35;8;8;
40569;PMS5003;26270;34.428;-119.710;2022-08-18T05:20:05;7;7;
40569;PMS5003;26270;34.428;-119.710;2022-08-18T05:22:37;10;9;
40569;PMS5003;26270;34.428;-119.710;2022-08-18T05:25:07;9;9;
40569;PMS5003;26270;34.428;-119.710;2022-08-18T05:27:38;8;7;
40569;PMS5003;26270;34.428;-119.710;2022-08-18T05:30:08;8;8;
40569;PMS5003;26270;34.428;-119.710;2022-08-18T05:32:38;8;7;
40569;PMS5003;26270;34.428;-119.710;2022-08-18T05:35:08;9;9;
40569;PMS5003;26270;34.428;-119.710;2022-08-18T05:37:41;8;7;
40569;PMS5003;26270;34.428;-119.710;2022-08-18T05:40:18;9;8;
40569;PMS5003;26270;34.428;-119.710;2022-08-18T05:42:49;9;9;
40569;PMS5003;26270;34.428;-119.710;2022-08-18T05:45:18;9;8;
40569;PMS5003;26270;34.428;-119.710;2022-08-18T05:47:47;8;7;
40569;PMS5003;26270;34.428;-119.710;2022-08-18T05:50:16;12;9;
40569;PMS5003;26270;34.428;-119.710;2022-08-18T05:52:47;11;10;
40569;PMS5003;26270;34.428;-119.710;2022-08-18T05:55:23;12;12;
40569;PMS5003;26270;34.428;-119.710;2022-08-18T05:57:55;10;9;
40569;PMS5003;26270;34.428;-119.710;2022-08-18T06:00:26;11;11;
40569;PMS5003;26270;34.428;-119.710;2022-08-18T06:02:56;15;14;
40569;PMS5003;26270;34.428;-119.710;2022-08-18T06:05:27;19;18;
40569;PMS5003;26270;34.428;-119.710;2022-08-18T06:08:01;21;21;
40569;PMS5003;26270;34.428;-119.710;2022-08-18T06:10:33;28;28;
40569;PMS5003;26270;34.428;-119.710;2022-08-18T06:13:02;36;36;
40569;PMS5003;26270;34.428;-119.710;2022-08-18T06:15:36;49;48;
40569;PMS5003;26270;34.428;-119.710;2022-08-18T06:18:20;55;55;
40569;PMS5003;26270;34.428;-119.710;2022-08-18T06:21:03;7;7;
40569;PMS5003;26270;34.428;-119.710;2022-08-18T06:23:42;6;6;
40569;PMS5003;26270;34.428;-119.710;2022-08-18T06:26:18;9;9;
40569;PMS5003;26270;34.428;-119.710;2022-08-18T06:28:54;10;9;
40569;PMS5003;26270;34.428;-119.710;2022-08-18T06:31:34;9;9;
40569;PMS5003;26270;34.428;-119.710;2022-08-18T06:34:10;8;8;
40569;PMS5003;26270;34.428;-119.710;2022-08-18T06:36:50;8;8;
40569;PMS5003;26270;34.428;-119.710;2022-08-18T06:39:23;9;9;
40569;PMS5003;26270;34.428;-119.710;2022-08-18T06:41:57;10;10;
40569;PMS5003;26270;34.428;-119.710;2022-08-18T06:44:27;12;11;
40569;PMS5003;26270;34.428;-119.710;2022-08-18T06:47:01;22;19;
40569;PMS5003;26270;34.428;-119.710;2022-08-18T06:49:38;10;9;
40569;PMS5003;26270;34.428;-119.710;2022-08-18T06:52:20;9;9;
40569;PMS5003;26270;34.428;-119.710;2022-08-18T06:54:52;11;11;
40569;PMS5003;26270;34.428;-119.710;2022-08-18T06:57:23;11;11;
40569;PMS5003;26270;34.428;-119.710;2022-08-18T06:59:55;12;12;
40569;PMS5003;26270;34.428;-119.710;2022-08-18T07:02:25;9;9;
40569;PMS5003;26270;34.428;-119.710;2022-08-18T07:05:14;12;12;
40569;PMS5003;26270;34.428;-119.710;2022-08-18T07:07:45;16;15;
40569;PMS5003;26270;34.428;-119.710;2022-08-18T07:10:33;18;18;
40569;PMS5003;26270;34.428;-119.710;2022-08-18T07:13:07;15;14;
40569;PMS5003;26270;34.428;-119.710;2022-08-18T07:15:45;12;12;
40569;PMS5003;26270;34.428;-119.710;2022-08-18T07:18:14;13;11;
40569;PMS5003;26270;34.428;-119.710;2022-08-18T07:20:49;9;8;
40569;PMS5003;26270;34.428;-119.710;2022-08-18T07:23:21;10;10;
40569;PMS5003;26270;34.428;-119.710;2022-08-18T07:25:57;5;5;
40569;PMS5003;26270;34.428;-119.710;2022-08-18T07:28:30;8;8;
40569;PMS5003;26270;34.428;-119.710;2022-08-18T07:31:10;5;5;
40569;PMS5003;26270;34.428;-119.710;2022-08-18T07:33:47;6;6;
40569;PMS5003;26270;34.428;-119.710;2022-08-18T07:36:18;7;7;
40569;PMS5003;26270;34.428;-119.710;2022-08-18T07:38:50;8;7;
40569;PMS5003;26270;34.428;-119.710;2022-08-18T07:41:24;9;9;
40569;PMS5003;26270;34.428;-119.710;2022-08-18T07:44:02;7;6;
40569;PMS5003;26270;34.428;-119.710;2022-08-18T07:46:37;9;7;
40569;PMS5003;26270;34.428;-119.710;2022-08-18T07:49:14;6;6;
40569;PMS5003;26270;34.428;-119.710;2022-08-18T07:51:46;8;8;
40569;PMS5003;26270;34.428;-119.710;2022-08-18T07:54:23;8;8;
40569;PMS5003;26270;34.428;-119.710;2022-08-18T07:57:03;9;9;
40569;PMS5003;26270;34.428;-119.710;2022-08-18T07:59:40;6;6;
40569;PMS5003;26270;34.428;-119.710;2022-08-18T08:02:18;7;7;
40569;PMS5003;26270;34.428;-119.710;2022-08-18T08:04:58;7;7;
40569;PMS5003;26270;34.428;-119.710;2022-08-18T08:07:36;7;7;
40569;PMS5003;26270;34.428;-119.710;2022-08-18T08:10:17;7;6;
40569;PMS5003;26270;34.428;-119.710;2022-08-18T08:12:54;8;8;
40569;PMS5003;26270;34.428;-119.710;2022-08-18T08:15:34;6;6;
40569;PMS5003;26270;34.428;-119.710;2022-08-18T08:18:11;7;6;
40569;PMS5003;26270;34.428;-119.710;2022-08-18T08:20:45;8;8;
40569;PMS5003;26270;34.428;-119.710;2022-08-18T08:23:21;7;7;
40569;PMS5003;26270;34.428;-119.710;2022-08-18T08:25:57;8;8;
40569;PMS5003;26270;34.428;-119.710;2022-08-18T08:28:37;6;6;
40569;PMS5003;26270;34.428;-119.710;2022-08-18T08:31:14;9;8;
40569;PMS5003;26270;34.428;-119.710;2022-08-18T08:33:50;7;6;
40569;PMS5003;26270;34.428;-119.710;2022-08-18T08:36:23;8;8;
40569;PMS5003;26270;34.428;-119.710;2022-08-18T08:38:54;7;7;
40569;PMS5003;26270;34.428;-119.710;2022-08-18T08:41:28;10;10;
40569;PMS5003;26270;34.428;-119.710;2022-08-18T08:44:05;8;8;
40569;PMS5003;26270;34.428;-119.710;2022-08-18T08:46:40;7;7;
40569;PMS5003;26270;34.428;-119.710;2022-08-18T08:49:15;8;8;
40569;PMS5003;26270;34.428;-119.710;2022-08-18T08:51:53;8;8;
40569;PMS5003;26270;34.428;-119.710;2022-08-18T08:54:25;8;8;
40569;PMS5003;26270;34.428;-119.710;2022-08-18T08:56:58;10;7;
40569;PMS5003;26270;34.428;-119.710;2022-08-18T08:59:27;8;7;
40569;PMS5003;26270;34.428;-119.710;2022-08-18T09:01:58;9;9;
40569;PMS5003;26270;34.428;-119.710;2022-08-18T09:04:45;9;9;
40569;PMS5003;26270;34.428;-119.710;2022-08-18T09:07:23;10;9;
40569;PMS5003;26270;34.428;-119.710;2022-08-18T09:10:10;7;7;
40569;PMS5003;26270;34.428;-119.710;2022-08-18T09:13:06;10;9;
40569;PMS5003;26270;34.428;-119.710;2022-08-18T09:15:56;8;7;
40569;PMS5003;26270;34.428;-119.710;2022-08-18T09:18:40;8;7;
40569;PMS5003;26270;34.428;-119.710;2022-08-18T09:21:23;7;7;
40569;PMS5003;26270;34.428;-119.710;2022-08-18T09:24:03;7;7;
40569;PMS5003;26270;34.428;-119.710;2022-08-18T09:26:45;8;8;
40569;PMS5003;26270;34.428;-119.710;2022-08-18T09:29:19;7;7;
40569;PMS5003;26270;34.428;-119.710;2022-08-18T09:32:55;9;9;
40569;PMS5003;26270;34.428;-119.710;2022-08-18T09:35:33;8;8;
40569;PMS5003;26270;34.428;-119.710;2022-08-18T09:38:11;9;9;
40569;PMS5003;26270;34.428;-119.710;2022-08-18T09:40:45;8;8;
40569;PMS5003;26270;34.428;-119.710;2022-08-18T09:43:21;8;7;
40569;PMS5003;26270;34.428;-119.710;2022-08-18T09:45:58;7;7;
40569;PMS5003;26270;34.428;-119.710;2022-08-18T09:48:28;9;9;
40569;PMS5003;26270;34.428;-119.710;2022-08-18T09:51:16;9;9;
40569;PMS5003;26270;34.428;-119.710;2022-08-18T09:54:14;9;8;
40569;PMS5003;26270;34.428;-119.710;2022-08-18T09:57:14;10;8;
40569;PMS5003;26270;34.428;-119.710;2022-08-18T10:01:16;9;8;
40569;PMS5003;26270;34.428;-119.710;2022-08-18T10:05:02;10;10;
40569;PMS5003;26270;34.428;-119.710;2022-08-18T10:07:53;10;9;
40569;PMS5003;26270;34.428;-119.710;2022-08-18T10:10:53;7;6;
40569;PMS5003;26270;34.428;-119.710;2022-08-18T10:13:27;9;9;
40569;PMS5003;26270;34.428;-119.710;2022-08-18T10:16:07;7;7;
40569;PMS5003;26270;34.428;-119.710;2022-08-18T10:18:50;8;8;
40569;PMS5003;26270;34.428;-119.710;2022-08-18T10:21:27;7;7;
40569;PMS5003;26270;34.428;-119.710;2022-08-18T10:24:27;6;6;
40569;PMS5003;26270;34.428;-119.710;2022-08-18T10:26:59;6;6;
40569;PMS5003;26270;34.428;-119.710;2022-08-18T10:30:02;6;5;
40569;PMS5003;26270;34.428;-119.710;2022-08-18T10:32:36;8;8;
40569;PMS5003;26270;34.428;-119.710;2022-08-18T10:35:53;6;6;
40569;PMS5003;26270;34.428;-119.710;2022-08-18T10:38:27;8;7;
40569;PMS5003;26270;34.428;-119.710;2022-08-18T10:41:11;7;7;
40569;PMS5003;26270;34.428;-119.710;2022-08-18T10:43:46;8;8;
40569;PMS5003;26270;34.428;-119.710;2022-08-18T10:46:18;7;7;
40569;PMS5003;26270;34.428;-119.710;2022-08-18T10:49:06;9;8;
40569;PMS5003;26270;34.428;-119.710;2022-08-18T10:51:50;7;7;
40569;PMS5003;26270;34.428;-119.710;2022-08-18T10:54:30;7;6;
40569;PMS5003;26270;34.428;-119.710;2022-08-18T10:57:10;6;6;
40569;PMS5003;26270;34.428;-119.710;2022-08-18T10:59:46;8;8;
40569;PMS5003;26270;34.428;-119.710;2022-08-18T11:02:33;7;6;
40569;PMS5003;26270;34.428;-119.710;2022-08-18T11:05:13;9;9;
40569;PMS5003;26270;34.428;-119.710;2022-08-18T11:07:46;9;9;
40569;PMS5003;26270;34.428;-119.710;2022-08-18T11:10:19;8;8;
40569;PMS5003;26270;34.428;-119.710;2022-08-18T11:12:54;8;8;
40569;PMS5003;26270;34.428;-119.710;2022-08-18T11:15:32;9;8;
40569;PMS5003;26270;34.428;-119.710;2022-08-18T11:18:13;9;9;
40569;PMS5003;26270;34.428;-119.710;2022-08-18T11:20:53;7;7;
40569;PMS5003;26270;34.428;-119.710;2022-08-18T11:24:01;8;8;
40569;PMS5003;26270;34.428;-119.710;2022-08-18T11:26:32;5;5;
40569;PMS5003;26270;34.428;-119.710;2022-08-18T11:29:36;7;6;
40569;PMS5003;26270;34.428;-119.710;2022-08-18T11:32:06;7;7;
40569;PMS5003;26270;34.428;-119.710;2022-08-18T11:34:41;7;7;
40569;PMS5003;26270;34.428;-119.710;2022-08-18T11:37:20;8;8;
40569;PMS5003;26270;34.428;-119.710;2022-08-18T11:39:52;7;7;
40569;PMS5003;26270;34.428;-119.710;2022-08-18T11:42:26;6;6;
40569;PMS5003;26270;34.428;-119.710;2022-08-18T11:45:01;5;5;
40569;PMS5003;26270;34.428;-119.710;2022-08-18T11:47:32;8;8;
40569;PMS5003;26270;34.428;-119.710;2022-08-18T11:50:06;7;7;
40569;PMS5003;26270;34.428;-119.710;2022-08-18T11:52:46;7;6;
40569;PMS5003;26270;34.428;-119.710;2022-08-18T11:55:18;6;6;
40569;PMS5003;26270;34.428;-119.710;2022-08-18T11:57:48;7;7;
40569;PMS5003;26270;34.428;-119.710;2022-08-18T12:02:29;8;8;
40569;PMS5003;26270;34.428;-119.710;2022-08-18T12:04:59;8;6;
40569;PMS5003;26270;34.428;-119.710;2022-08-18T12:07:29;5;5;
40569;PMS5003;26270;34.428;-119.710;2022-08-18T12:10:09;9;8;
40569;PMS5003;26270;34.428;-119.710;2022-08-18T12:12:44;6;6;
40569;PMS5003;26270;34.428;-119.710;2022-08-18T12:15:30;6;6;
40569;PMS5003;26270;34.428;-119.710;2022-08-18T12:18:00;8;7;
40569;PMS5003;26270;34.428;-119.710;2022-08-18T12:20:28;7;7;
40569;PMS5003;26270;34.428;-119.710;2022-08-18T12:22:57;7;7;
40569;PMS5003;26270;34.428;-119.710;2022-08-18T12:25:25;7;7;
40569;PMS5003;26270;34.428;-119.710;2022-08-18T12:27:53;5;5;
40569;PMS5003;26270;34.428;-119.710;2022-08-18T12:30:22;6;6;
40569;PMS5003;26270;34.428;-119.710;2022-08-18T12:32:50;8;8;
40569;PMS5003;26270;34.428;-119.710;2022-08-18T12:35:19;7;7;
40569;PMS5003;26270;34.428;-119.710;2022-08-18T12:37:48;6;6;
40569;PMS5003;26270;34.428;-119.710;2022-08-18T12:40:16;6;5;
40569;PMS5003;26270;34.428;-119.710;2022-08-18T12:42:44;8;8;
40569;PMS5003;26270;34.428;-119.710;2022-08-18T12:45:15;8;8;
40569;PMS5003;26270;34.428;-119.710;2022-08-18T12:47:43;7;7;
40569;PMS5003;26270;34.428;-119.710;2022-08-18T12:50:11;8;8;
40569;PMS5003;26270;34.428;-119.710;2022-08-18T12:52:40;7;7;
40569;PMS5003;26270;34.428;-119.710;2022-08-18T12:55:08;8;7;
40569;PMS5003;26270;34.428;-119.710;2022-08-18T12:57:36;7;7;
40569;PMS5003;26270;34.428;-119.710;2022-08-18T13:00:05;6;6;
40569;PMS5003;26270;34.428;-119.710;2022-08-18T13:02:35;4;4;
40569;PMS5003;26270;34.428;-119.710;2022-08-18T13:05:03;4;4;
40569;PMS5003;26270;34.428;-119.710;2022-08-18T13:07:32;5;5;
40569;PMS5003;26270;34.428;-119.710;2022-08-18T13:10:01;4;4;
40569;PMS5003;26270;34.428;-119.710;2022-08-18T13:12:29;7;6;
40569;PMS5003;26270;34.428;-119.710;2022-08-18T13:14:57;8;7;
40569;PMS5003;26270;34.428;-119.710;2022-08-18T13:17:26;4;4;
40569;PMS5003;26270;34.428;-119.710;2022-08-18T13:19:54;5;4;
40569;PMS5003;26270;34.428;-119.710;2022-08-18T13:22:22;4;4;
40569;PMS5003;26270;34.428;-119.710;2022-08-18T13:24:51;5;5;
40569;PMS5003;26270;34.428;-119.710;2022-08-18T13:27:19;7;6;
40569;PMS5003;26270;34.428;-119.710;2022-08-18T13:29:47;4;4;
40569;PMS5003;26270;34.428;-119.710;2022-08-18T13:32:16;4;4;
40569;PMS5003;26270;34.428;-119.710;2022-08-18T13:34:44;3;3;
40569;PMS5003;26270;34.428;-119.710;2022-08-18T13:37:12;5;5;
40569;PMS5003;26270;34.428;-119.710;2022-08-18T13:39:41;4;4;
40569;PMS5003;26270;34.428;-119.710;2022-08-18T13:42:09;4;4;
40569;PMS5003;26270;34.428;-119.710;2022-08-18T13:44:37;6;6;
40569;PMS5003;26270;34.428;-119.710;2022-08-18T13:47:06;5;5;
40569;PMS5003;26270;34.428;-119.710;2022-08-18T13:49:34;6;5;
40569;PMS5003;26270;34.428;-119.710;2022-08-18T13:52:03;6;6;
40569;PMS5003;26270;34.428;-119.710;2022-08-18T13:54:32;3;3;
40569;PMS5003;26270;34.428;-119.710;2022-08-18T13:57:00;4;4;
40569;PMS5003;26270;34.428;-119.710;2022-08-18T13:59:29;6;6;
40569;PMS5003;26270;34.428;-119.710;2022-08-18T14:01:58;6;6;
40569;PMS5003;26270;34.428;-119.710;2022-08-18T14:04:28;6;6;
40569;PMS5003;26270;34.428;-119.710;2022-08-18T14:06:56;6;6;
40569;PMS5003;26270;34.428;-119.710;2022-08-18T14:09:24;6;6;
40569;PMS5003;26270;34.428;-119.710;2022-08-18T14:11:54;5;5;
40569;PMS5003;26270;34.428;-119.710;2022-08-18T14:14:23;5;5;
40569;PMS5003;26270;34.428;-119.710;2022-08-18T14:16:51;5;5;
40569;PMS5003;26270;34.428;-119.710;2022-08-18T14:19:20;5;5;
40569;PMS5003;26270;34.428;-119.710;2022-08-18T14:21:48;5;4;
40569;PMS5003;26270;34.428;-119.710;2022-08-18T14:24:19;7;5;
40569;PMS5003;26270;34.428;-119.710;2022-08-18T14:26:47;3;3;
40569;PMS5003;26270;34.428;-119.710;2022-08-18T14:29:15;3;3;
40569;PMS5003;26270;34.428;-119.710;2022-08-18T14:31:44;5;5;
40569;PMS5003;26270;34.428;-119.710;2022-08-18T14:34:13;4;4;
40569;PMS5003;26270;34.428;-119.710;2022-08-18T14:36:41;4;3;
40569;PMS5003;26270;34.428;-119.710;2022-08-18T14:39:10;3;3;
40569;PMS5003;26270;34.428;-119.710;2022-08-18T14:41:38;4;4;
40569;PMS5003;26270;34.428;-119.710;2022-08-18T14:44:06;4;4;
40569;PMS5003;26270;34.428;-119.710;2022-08-18T14:46:34;4;4;
40569;PMS5003;26270;34.428;-119.710;2022-08-18T14:49:03;7;7;
40569;PMS5003;26270;34.428;-119.710;2022-08-18T14:51:31;5;5;
40569;PMS5003;26270;34.428;-119.710;2022-08-18T14:53:59;7;7;
40569;PMS5003;26270;34.428;-119.710;2022-08-18T14:56:28;7;7;
40569;PMS5003;26270;34.428;-119.710;2022-08-18T14:58:56;7;7;
40569;PMS5003;26270;34.428;-119.710;2022-08-18T15:01:24;7;7;
40569;PMS5003;26270;34.428;-119.710;2022-08-18T15:03:53;6;6;
40569;PMS5003;26270;34.428;-119.710;2022-08-18T15:06:21;5;5;
40569;PMS5003;26270;34.428;-119.710;2022-08-18T15:08:49;8;8;
40569;PMS5003;26270;34.428;-119.710;2022-08-18T15:11:18;8;8;
40569;PMS5003;26270;34.428;-119.710;2022-08-18T15:13:46;7;7;
40569;PMS5003;26270;34.428;-119.710;2022-08-18T15:16:15;6;6;
40569;PMS5003;26270;34.428;-119.710;2022-08-18T15:18:43;8;7;
40569;PMS5003;26270;34.428;-119.710;2022-08-18T15:21:13;8;8;
40569;PMS5003;26270;34.428;-119.710;2022-08-18T15:23:41;6;6;
40569;PMS5003;26270;34.428;-119.710;2022-08-18T15:26:10;7;7;
40569;PMS5003;26270;34.428;-119.710;2022-08-18T15:28:39;5;5;
40569;PMS5003;26270;34.428;-119.710;2022-08-18T15:31:07;9;8;
40569;PMS5003;26270;34.428;-119.710;2022-08-18T15:33:35;9;9;
40569;PMS5003;26270;34.428;-119.710;2022-08-18T15:36:03;7;7;
40569;PMS5003;26270;34.428;-119.710;2022-08-18T15:38:31;10;10;
40569;PMS5003;26270;34.428;-119.710;2022-08-18T15:41:00;16;16;
40569;PMS5003;26270;34.428;-119.710;2022-08-18T15:43:29;12;9;
40569;PMS5003;26270;34.428;-119.710;2022-08-18T15:45:58;13;13;
40569;PMS5003;26270;34.428;-119.710;2022-08-18T15:48:27;8;7;
40569;PMS5003;26270;34.428;-119.710;2022-08-18T15:50:56;8;8;
40569;PMS5003;26270;34.428;-119.710;2022-08-18T15:53:24;7;7;
40569;PMS5003;26270;34.428;-119.710;2022-08-18T15:55:53;7;5;
40569;PMS5003;26270;34.428;-119.710;2022-08-18T15:58:21;6;6;
40569;PMS5003;26270;34.428;-119.710;2022-08-18T16:00:49;7;7;
40569;PMS5003;26270;34.428;-119.710;2022-08-18T16:03:17;8;7;
40569;PMS5003;26270;34.428;-119.710;2022-08-18T16:05:47;8;8;
40569;PMS5003;26270;34.428;-119.710;2022-08-18T16:08:18;6;5;
40569;PMS5003;26270;34.428;-119.710;2022-08-18T16:10:48;9;8;
40569;PMS5003;26270;34.428;-119.710;2022-08-18T16:13:16;9;8;
40569;PMS5003;26270;34.428;-119.710;2022-08-18T16:15:44;6;6;
40569;PMS5003;26270;34.428;-119.710;2022-08-18T16:18:13;5;5;
40569;PMS5003;26270;34.428;-119.710;2022-08-18T16:20:43;6;6;
40569;PMS5003;26270;34.428;-119.710;2022-08-18T16:23:12;6;6;
40569;PMS5003;26270;34.428;-119.710;2022-08-18T16:25:41;4;4;
40569;PMS5003;26270;34.428;-119.710;2022-08-18T16:28:10;6;6;
40569;PMS5003;26270;34.428;-119.710;2022-08-18T16:30:38;7;7;
40569;PMS5003;26270;34.428;-119.710;2022-08-18T16:33:07;8;7;
40569;PMS5003;26270;34.428;-119.710;2022-08-18T16:35:36;8;8;
40569;PMS5003;26270;34.428;-119.710;2022-08-18T16:38:05;9;8;
40569;PMS5003;26270;34.428;-119.710;2022-08-18T16:40:34;7;7;